sensor_id;sensor_type;location;lat;lon;timestamp;pressure;altitude;pressure_sealevel;temperature;humidity
61474;BME280;53694;49.784;30.150;2023-04-04T00:00:16;99620.13;;;5.45;71.08
61474;BME280;53694;49.784;30.150;2023-04-04T00:01:17;99622.31;;;5.14;71.94
61474;BME280;53694;49.784;30.150;2023-04-04T00:02:19;99624.80;;;4.89;72.87
61474;BME280;53694;49.784;30.150;2023-04-04T00:03:20;99622.40;;;4.79;73.59
61474;BME280;53694;49.784;30.150;2023-04-04T00:04:22;99617.91;;;4.83;73.77
61474;BME280;53694;49.784;30.150;2023-04-04T00:05:23;99615.97;;;4.92;73.81
61474;BME280;53694;49.784;30.150;2023-04-04T00:06:25;99612.09;;;5.11;73.73
61474;BME280;53694;49.784;30.150;2023-04-04T00:07:26;99609.12;;;5.33;73.19
61474;BME280;53694;49.784;30.150;2023-04-04T00:08:28;99617.03;;;5.56;72.61
61474;BME280;53694;49.784;30.150;2023-04-04T00:09:29;99611.63;;;5.76;72.02
61474;BME280;53694;49.784;30.150;2023-04-04T00:10:31;99614.91;;;5.99;71.26
61474;BME280;53694;49.784;30.150;2023-04-04T00:11:32;99613.16;;;6.16;70.62
61474;BME280;53694;49.784;30.150;2023-04-04T00:12:35;99604.39;;;6.31;70.16
61474;BME280;53694;49.784;30.150;2023-04-04T00:13:37;99616.30;;;6.47;68.84
61474;BME280;53694;49.784;30.150;2023-04-04T00:14:38;99613.02;;;6.54;68.21
61474;BME280;53694;49.784;30.150;2023-04-04T00:15:40;99611.83;;;6.64;68.08
61474;BME280;53694;49.784;30.150;2023-04-04T00:16:41;99617.42;;;6.67;67.40
61474;BME280;53694;49.784;30.150;2023-04-04T00:17:43;99611.19;;;6.46;66.84
61474;BME280;53694;49.784;30.150;2023-04-04T00:18:45;99612.71;;;6.14;67.68
61474;BME280;53694;49.784;30.150;2023-04-04T00:19:46;99617.56;;;5.79;68.89
61474;BME280;53694;49.784;30.150;2023-04-04T00:20:48;99613.73;;;5.41;69.98
61474;BME280;53694;49.784;30.150;2023-04-04T00:21:49;99612.77;;;4.99;71.35
61474;BME280;53694;49.784;30.150;2023-04-04T00:22:51;99612.67;;;4.61;73.01
61474;BME280;53694;49.784;30.150;2023-04-04T00:23:53;99614.28;;;4.27;74.58
61474;BME280;53694;49.784;30.150;2023-04-04T00:24:54;99612.84;;;4.04;75.87
61474;BME280;53694;49.784;30.150;2023-04-04T00:25:56;99606.44;;;3.99;76.72
61474;BME280;53694;49.784;30.150;2023-04-04T00:26:58;99616.20;;;4.09;76.99
61474;BME280;53694;49.784;30.150;2023-04-04T00:27:59;99620.22;;;4.29;77.06
61474;BME280;53694;49.784;30.150;2023-04-04T00:29:01;99615.86;;;4.54;76.55
61474;BME280;53694;49.784;30.150;2023-04-04T00:30:03;99619.04;;;4.82;75.97
61474;BME280;53694;49.784;30.150;2023-04-04T00:31:05;99623.78;;;5.11;74.76
61474;BME280;53694;49.784;30.150;2023-04-04T00:32:07;99626.41;;;5.37;73.83
61474;BME280;53694;49.784;30.150;2023-04-04T00:33:08;99628.87;;;5.60;72.62
61474;BME280;53694;49.784;30.150;2023-04-04T00:34:10;99631.19;;;5.79;71.90
61474;BME280;53694;49.784;30.150;2023-04-04T00:35:11;99636.72;;;5.99;71.25
61474;BME280;53694;49.784;30.150;2023-04-04T00:36:13;99631.94;;;6.17;70.74
61474;BME280;53694;49.784;30.150;2023-04-04T00:37:14;99644.17;;;6.32;69.50
61474;BME280;53694;49.784;30.150;2023-04-04T00:38:16;99634.60;;;6.47;69.32
61474;BME280;53694;49.784;30.150;2023-04-04T00:39:17;99638.63;;;6.62;68.83
61474;BME280;53694;49.784;30.150;2023-04-04T00:40:19;99637.90;;;6.73;67.72
61474;BME280;53694;49.784;30.150;2023-04-04T00:41:21;99643.64;;;6.60;67.50
61474;BME280;53694;49.784;30.150;2023-04-04T00:42:23;99640.92;;;6.39;67.85
61474;BME280;53694;49.784;30.150;2023-04-04T00:43:25;99643.36;;;6.11;68.49
61474;BME280;53694;49.784;30.150;2023-04-04T00:44:27;99644.82;;;5.79;69.19
61474;BME280;53694;49.784;30.150;2023-04-04T00:45:29;99645.93;;;5.39;69.85
61474;BME280;53694;49.784;30.150;2023-04-04T00:46:31;99636.92;;;5.00;71.03
61474;BME280;53694;49.784;30.150;2023-04-04T00:47:33;99643.55;;;4.65;72.37
61474;BME280;53694;49.784;30.150;2023-04-04T00:48:35;99647.24;;;4.34;73.55
61474;BME280;53694;49.784;30.150;2023-04-04T00:49:37;99645.94;;;4.14;74.68
61474;BME280;53694;49.784;30.150;2023-04-04T00:50:39;99653.92;;;4.11;75.45
61474;BME280;53694;49.784;30.150;2023-04-04T00:51:40;99642.43;;;4.22;75.75
61474;BME280;53694;49.784;30.150;2023-04-04T00:52:42;99642.60;;;4.43;75.50
61474;BME280;53694;49.784;30.150;2023-04-04T00:53:45;99640.20;;;4.68;74.85
61474;BME280;53694;49.784;30.150;2023-04-04T00:54:47;99639.36;;;4.93;74.18
61474;BME280;53694;49.784;30.150;2023-04-04T00:55:49;99638.80;;;5.17;73.20
61474;BME280;53694;49.784;30.150;2023-04-04T00:56:51;99642.30;;;5.35;72.40
61474;BME280;53694;49.784;30.150;2023-04-04T00:57:52;99654.86;;;5.57;72.05
61474;BME280;53694;49.784;30.150;2023-04-04T00:58:54;99652.99;;;5.79;71.08
61474;BME280;53694;49.784;30.150;2023-04-04T00:59:58;99653.07;;;5.99;70.49
61474;BME280;53694;49.784;30.150;2023-04-04T01:01:00;99650.23;;;6.17;69.27
61474;BME280;53694;49.784;30.150;2023-04-04T01:02:02;99648.83;;;6.32;68.71
61474;BME280;53694;49.784;30.150;2023-04-04T01:03:04;99646.31;;;6.47;67.93
61474;BME280;53694;49.784;30.150;2023-04-04T01:04:06;99648.38;;;6.50;67.38
61474;BME280;53694;49.784;30.150;2023-04-04T01:05:08;99646.72;;;6.37;67.04
61474;BME280;53694;49.784;30.150;2023-04-04T01:06:11;99655.89;;;6.12;67.38
61474;BME280;53694;49.784;30.150;2023-04-04T01:07:14;99648.00;;;5.81;68.39
61474;BME280;53694;49.784;30.150;2023-04-04T01:08:18;99643.20;;;5.48;69.58
61474;BME280;53694;49.784;30.150;2023-04-04T01:09:21;99650.36;;;5.14;70.51
61474;BME280;53694;49.784;30.150;2023-04-04T01:10:23;99645.79;;;4.80;71.73
61474;BME280;53694;49.784;30.150;2023-04-04T01:11:25;99649.00;;;4.47;72.93
61474;BME280;53694;49.784;30.150;2023-04-04T01:12:27;99660.50;;;4.27;74.00
61474;BME280;53694;49.784;30.150;2023-04-04T01:13:30;99657.14;;;4.21;74.68
61474;BME280;53694;49.784;30.150;2023-04-04T01:14:32;99647.70;;;4.28;74.95
61474;BME280;53694;49.784;30.150;2023-04-04T01:15:34;99648.67;;;4.40;74.84
61474;BME280;53694;49.784;30.150;2023-04-04T01:16:35;99644.52;;;4.60;74.57
61474;BME280;53694;49.784;30.150;2023-04-04T01:17:37;99645.61;;;4.85;74.03
61474;BME280;53694;49.784;30.150;2023-04-04T01:18:40;99649.25;;;5.07;73.43
61474;BME280;53694;49.784;30.150;2023-04-04T01:20:06;99647.89;;;5.30;72.69
61474;BME280;53694;49.784;30.150;2023-04-04T01:21:11;99648.77;;;5.51;71.77
61474;BME280;53694;49.784;30.150;2023-04-04T01:22:13;99647.25;;;5.71;70.62
61474;BME280;53694;49.784;30.150;2023-04-04T01:23:16;99644.09;;;5.90;70.65
61474;BME280;53694;49.784;30.150;2023-04-04T01:24:21;99647.36;;;6.13;69.41
61474;BME280;53694;49.784;30.150;2023-04-04T01:25:30;99639.92;;;6.22;68.54
61474;BME280;53694;49.784;30.150;2023-04-04T01:26:32;99640.64;;;6.32;67.98
61474;BME280;53694;49.784;30.150;2023-04-04T01:27:34;99635.84;;;6.29;67.42
61474;BME280;53694;49.784;30.150;2023-04-04T01:28:35;99630.86;;;6.10;67.81
61474;BME280;53694;49.784;30.150;2023-04-04T01:29:37;99632.13;;;5.83;68.71
61474;BME280;53694;49.784;30.150;2023-04-04T01:30:39;99633.10;;;5.48;69.81
61474;BME280;53694;49.784;30.150;2023-04-04T01:31:48;99624.58;;;5.12;70.89
61474;BME280;53694;49.784;30.150;2023-04-04T01:32:57;99630.27;;;4.72;72.09
61474;BME280;53694;49.784;30.150;2023-04-04T01:33:59;99636.36;;;4.34;73.68
61474;BME280;53694;49.784;30.150;2023-04-04T01:37:35;99635.38;;;4.04;75.99
61474;BME280;53694;49.784;30.150;2023-04-04T01:38:48;99635.41;;;4.30;75.94
61474;BME280;53694;49.784;30.150;2023-04-04T01:39:52;99631.09;;;4.55;75.22
61474;BME280;53694;49.784;30.150;2023-04-04T01:41:04;99640.34;;;4.80;74.54
61474;BME280;53694;49.784;30.150;2023-04-04T01:42:06;99631.33;;;5.06;73.96
61474;BME280;53694;49.784;30.150;2023-04-04T01:43:08;99628.19;;;5.33;73.13
61474;BME280;53694;49.784;30.150;2023-04-04T01:44:10;99623.61;;;5.55;72.35
61474;BME280;53694;49.784;30.150;2023-04-04T01:45:12;99622.22;;;5.78;71.90
61474;BME280;53694;49.784;30.150;2023-04-04T01:46:15;99621.95;;;6.00;70.84
61474;BME280;53694;49.784;30.150;2023-04-04T01:47:17;99625.20;;;6.15;69.59
61474;BME280;53694;49.784;30.150;2023-04-04T01:48:18;99618.89;;;6.23;68.70
61474;BME280;53694;49.784;30.150;2023-04-04T01:49:21;99622.34;;;6.32;68.53
61474;BME280;53694;49.784;30.150;2023-04-04T01:50:23;99618.52;;;6.33;68.00
61474;BME280;53694;49.784;30.150;2023-04-04T01:51:24;99615.23;;;6.19;68.43
61474;BME280;53694;49.784;30.150;2023-04-04T01:52:26;99610.25;;;6.00;69.29
61474;BME280;53694;49.784;30.150;2023-04-04T01:53:27;99603.99;;;5.70;69.27
61474;BME280;53694;49.784;30.150;2023-04-04T01:54:29;99610.26;;;5.32;70.10
61474;BME280;53694;49.784;30.150;2023-04-04T01:55:30;99605.91;;;4.93;71.22
61474;BME280;53694;49.784;30.150;2023-04-04T01:56:32;99599.71;;;4.58;72.66
61474;BME280;53694;49.784;30.150;2023-04-04T01:57:33;99604.20;;;4.36;73.92
61474;BME280;53694;49.784;30.150;2023-04-04T01:58:35;99606.30;;;4.31;74.52
61474;BME280;53694;49.784;30.150;2023-04-04T01:59:36;99604.70;;;4.38;74.90
61474;BME280;53694;49.784;30.150;2023-04-04T02:00:38;99597.95;;;4.53;74.68
61474;BME280;53694;49.784;30.150;2023-04-04T02:01:40;99597.63;;;4.72;74.46
61474;BME280;53694;49.784;30.150;2023-04-04T02:02:41;99595.48;;;4.95;73.54
61474;BME280;53694;49.784;30.150;2023-04-04T02:03:43;99599.43;;;5.15;72.99
61474;BME280;53694;49.784;30.150;2023-04-04T02:04:45;99599.83;;;5.34;72.49
61474;BME280;53694;49.784;30.150;2023-04-04T02:05:47;99602.30;;;5.57;71.92
61474;BME280;53694;49.784;30.150;2023-04-04T02:06:49;99603.14;;;5.78;71.36
61474;BME280;53694;49.784;30.150;2023-04-04T02:07:50;99598.55;;;5.99;70.72
61474;BME280;53694;49.784;30.150;2023-04-04T02:08:52;99603.19;;;6.20;69.87
61474;BME280;53694;49.784;30.150;2023-04-04T02:09:53;99599.42;;;6.33;68.69
61474;BME280;53694;49.784;30.150;2023-04-04T02:10:58;99599.45;;;6.45;68.11
61474;BME280;53694;49.784;30.150;2023-04-04T02:11:59;99610.19;;;6.50;67.83
61474;BME280;53694;49.784;30.150;2023-04-04T02:13:01;99618.75;;;6.40;67.52
61474;BME280;53694;49.784;30.150;2023-04-04T02:14:02;99614.78;;;6.17;67.35
61474;BME280;53694;49.784;30.150;2023-04-04T02:15:05;99616.88;;;5.82;68.27
61474;BME280;53694;49.784;30.150;2023-04-04T02:16:07;99619.00;;;5.46;69.34
61474;BME280;53694;49.784;30.150;2023-04-04T02:17:09;99619.77;;;5.09;70.37
61474;BME280;53694;49.784;30.150;2023-04-04T02:18:10;99621.45;;;4.75;71.59
61474;BME280;53694;49.784;30.150;2023-04-04T02:19:12;99621.48;;;4.40;72.85
61474;BME280;53694;49.784;30.150;2023-04-04T02:20:14;99624.98;;;4.15;73.99
61474;BME280;53694;49.784;30.150;2023-04-04T02:21:16;99618.75;;;4.06;75.12
61474;BME280;53694;49.784;30.150;2023-04-04T02:22:17;99619.71;;;4.10;75.49
61474;BME280;53694;49.784;30.150;2023-04-04T02:23:18;99618.30;;;4.21;75.40
61474;BME280;53694;49.784;30.150;2023-04-04T02:24:20;99605.16;;;4.40;75.15
61474;BME280;53694;49.784;30.150;2023-04-04T02:25:23;99609.16;;;4.60;74.54
61474;BME280;53694;49.784;30.150;2023-04-04T02:26:25;99614.73;;;4.81;74.09
61474;BME280;53694;49.784;30.150;2023-04-04T02:27:27;99606.34;;;5.04;73.61
61474;BME280;53694;49.784;30.150;2023-04-04T02:28:28;99621.80;;;5.29;72.97
61474;BME280;53694;49.784;30.150;2023-04-04T02:29:30;99621.08;;;5.49;71.79
61474;BME280;53694;49.784;30.150;2023-04-04T02:30:32;99622.27;;;5.69;71.20
61474;BME280;53694;49.784;30.150;2023-04-04T02:31:33;99626.00;;;5.86;70.44
61474;BME280;53694;49.784;30.150;2023-04-04T02:32:35;99628.19;;;6.01;69.78
61474;BME280;53694;49.784;30.150;2023-04-04T02:33:37;99630.34;;;6.16;69.45
61474;BME280;53694;49.784;30.150;2023-04-04T02:34:38;99630.53;;;6.32;68.73
61474;BME280;53694;49.784;30.150;2023-04-04T02:35:40;99625.69;;;6.38;68.46
61474;BME280;53694;49.784;30.150;2023-04-04T02:36:41;99619.17;;;6.30;68.36
61474;BME280;53694;49.784;30.150;2023-04-04T02:37:44;99612.27;;;6.12;68.20
61474;BME280;53694;49.784;30.150;2023-04-04T02:38:46;99619.75;;;5.85;69.02
61474;BME280;53694;49.784;30.150;2023-04-04T02:39:47;99622.48;;;5.56;70.06
61474;BME280;53694;49.784;30.150;2023-04-04T02:40:49;99629.50;;;5.27;70.81
61474;BME280;53694;49.784;30.150;2023-04-04T02:41:50;99627.02;;;4.96;71.76
61474;BME280;53694;49.784;30.150;2023-04-04T02:42:52;99629.94;;;4.73;72.53
61474;BME280;53694;49.784;30.150;2023-04-04T02:43:53;99626.27;;;4.61;73.11
61474;BME280;53694;49.784;30.150;2023-04-04T02:44:55;99628.20;;;4.60;73.53
61474;BME280;53694;49.784;30.150;2023-04-04T02:45:56;99632.33;;;4.75;73.66
61474;BME280;53694;49.784;30.150;2023-04-04T02:46:58;99632.30;;;4.92;73.31
61474;BME280;53694;49.784;30.150;2023-04-04T02:47:59;99645.72;;;5.15;72.47
61474;BME280;53694;49.784;30.150;2023-04-04T02:49:01;99642.30;;;5.35;71.74
61474;BME280;53694;49.784;30.150;2023-04-04T02:50:03;99641.23;;;5.57;71.15
61474;BME280;53694;49.784;30.150;2023-04-04T02:51:05;99644.33;;;5.76;70.36
61474;BME280;53694;49.784;30.150;2023-04-04T02:52:06;99649.86;;;5.97;69.81
61474;BME280;53694;49.784;30.150;2023-04-04T02:53:08;99645.77;;;6.12;69.11
61474;BME280;53694;49.784;30.150;2023-04-04T02:54:10;99650.63;;;6.28;68.32
61474;BME280;53694;49.784;30.150;2023-04-04T02:55:11;99646.45;;;6.30;67.47
61474;BME280;53694;49.784;30.150;2023-04-04T02:56:13;99643.30;;;6.19;67.32
61474;BME280;53694;49.784;30.150;2023-04-04T02:57:14;99647.78;;;5.94;67.54
61474;BME280;53694;49.784;30.150;2023-04-04T02:58:16;99647.29;;;5.63;68.38
61474;BME280;53694;49.784;30.150;2023-04-04T02:59:17;99641.98;;;5.28;69.43
61474;BME280;53694;49.784;30.150;2023-04-04T03:00:19;99638.69;;;4.96;70.32
61474;BME280;53694;49.784;30.150;2023-04-04T03:01:21;99641.47;;;4.62;71.56
61474;BME280;53694;49.784;30.150;2023-04-04T03:02:23;99635.08;;;4.32;72.84
61474;BME280;53694;49.784;30.150;2023-04-04T03:03:25;99644.80;;;4.07;73.78
61474;BME280;53694;49.784;30.150;2023-04-04T03:04:26;99641.11;;;4.03;74.59
61474;BME280;53694;49.784;30.150;2023-04-04T03:05:29;99648.98;;;4.13;74.79
61474;BME280;53694;49.784;30.150;2023-04-04T03:06:31;99639.72;;;4.31;74.67
61474;BME280;53694;49.784;30.150;2023-04-04T03:07:32;99642.27;;;4.54;74.23
61474;BME280;53694;49.784;30.150;2023-04-04T03:08:34;99636.67;;;4.76;73.53
61474;BME280;53694;49.784;30.150;2023-04-04T03:09:35;99639.98;;;4.99;73.14
61474;BME280;53694;49.784;30.150;2023-04-04T03:10:37;99635.26;;;5.25;72.40
61474;BME280;53694;49.784;30.150;2023-04-04T03:11:38;99638.55;;;5.48;71.43
61474;BME280;53694;49.784;30.150;2023-04-04T03:12:40;99639.27;;;5.66;71.07
61474;BME280;53694;49.784;30.150;2023-04-04T03:13:41;99631.14;;;5.87;70.63
61474;BME280;53694;49.784;30.150;2023-04-04T03:14:43;99631.20;;;6.08;69.86
61474;BME280;53694;49.784;30.150;2023-04-04T03:15:44;99630.28;;;6.25;69.21
61474;BME280;53694;49.784;30.150;2023-04-04T03:16:46;99632.88;;;6.42;68.68
61474;BME280;53694;49.784;30.150;2023-04-04T03:17:48;99631.66;;;6.52;68.17
61474;BME280;53694;49.784;30.150;2023-04-04T03:18:50;99631.08;;;6.46;67.91
61474;BME280;53694;49.784;30.150;2023-04-04T03:19:51;99633.33;;;6.23;67.63
61474;BME280;53694;49.784;30.150;2023-04-04T03:20:53;99636.42;;;5.92;68.32
61474;BME280;53694;49.784;30.150;2023-04-04T03:21:54;99641.23;;;5.57;69.41
61474;BME280;53694;49.784;30.150;2023-04-04T03:22:56;99643.27;;;5.22;70.58
61474;BME280;53694;49.784;30.150;2023-04-04T03:23:58;99646.57;;;4.89;71.62
61474;BME280;53694;49.784;30.150;2023-04-04T03:24:59;99645.48;;;4.56;72.70
61474;BME280;53694;49.784;30.150;2023-04-04T03:26:01;99645.62;;;4.33;73.70
61474;BME280;53694;49.784;30.150;2023-04-04T03:27:03;99652.67;;;4.25;74.50
61474;BME280;53694;49.784;30.150;2023-04-04T03:28:11;99649.47;;;4.32;75.02
61474;BME280;53694;49.784;30.150;2023-04-04T03:29:12;99645.78;;;4.45;74.77
61474;BME280;53694;49.784;30.150;2023-04-04T03:30:14;99649.45;;;4.67;74.37
61474;BME280;53694;49.784;30.150;2023-04-04T03:31:16;99637.28;;;4.90;73.97
61474;BME280;53694;49.784;30.150;2023-04-04T03:32:17;99645.38;;;5.16;73.44
61474;BME280;53694;49.784;30.150;2023-04-04T03:33:19;99638.09;;;5.38;72.60
61474;BME280;53694;49.784;30.150;2023-04-04T03:34:20;99647.29;;;5.63;72.06
61474;BME280;53694;49.784;30.150;2023-04-04T03:35:22;99649.42;;;5.87;71.24
61474;BME280;53694;49.784;30.150;2023-04-04T03:36:23;99658.92;;;6.10;70.31
61474;BME280;53694;49.784;30.150;2023-04-04T03:37:25;99654.14;;;6.28;69.66
61474;BME280;53694;49.784;30.150;2023-04-04T03:38:26;99655.63;;;6.46;68.86
61474;BME280;53694;49.784;30.150;2023-04-04T03:39:27;99653.08;;;6.62;68.13
61474;BME280;53694;49.784;30.150;2023-04-04T03:40:29;99648.68;;;6.70;67.49
61474;BME280;53694;49.784;30.150;2023-04-04T03:41:30;99649.89;;;6.60;67.19
61474;BME280;53694;49.784;30.150;2023-04-04T03:42:33;99656.50;;;6.38;67.34
61474;BME280;53694;49.784;30.150;2023-04-04T03:43:34;99659.91;;;6.06;68.04
61474;BME280;53694;49.784;30.150;2023-04-04T03:44:40;99656.07;;;5.68;69.09
61474;BME280;53694;49.784;30.150;2023-04-04T03:45:42;99656.40;;;5.29;70.18
61474;BME280;53694;49.784;30.150;2023-04-04T03:46:43;99654.88;;;4.84;71.46
61474;BME280;53694;49.784;30.150;2023-04-04T03:47:45;99653.81;;;4.50;72.78
61474;BME280;53694;49.784;30.150;2023-04-04T03:48:46;99655.22;;;4.22;74.00
61474;BME280;53694;49.784;30.150;2023-04-04T03:49:48;99659.85;;;4.13;75.00
61474;BME280;53694;49.784;30.150;2023-04-04T03:50:50;99649.29;;;4.20;75.41
61474;BME280;53694;49.784;30.150;2023-04-04T03:51:51;99642.27;;;4.36;75.25
61474;BME280;53694;49.784;30.150;2023-04-04T03:52:53;99652.52;;;4.57;74.85
61474;BME280;53694;49.784;30.150;2023-04-04T03:53:55;99652.33;;;4.79;74.34
61474;BME280;53694;49.784;30.150;2023-04-04T03:54:56;99648.61;;;5.01;73.64
61474;BME280;53694;49.784;30.150;2023-04-04T03:55:58;99652.88;;;5.28;73.15
61474;BME280;53694;49.784;30.150;2023-04-04T03:57:00;99656.15;;;5.51;71.43
61474;BME280;53694;49.784;30.150;2023-04-04T03:58:02;99651.15;;;5.62;70.56
61474;BME280;53694;49.784;30.150;2023-04-04T03:59:03;99655.23;;;5.76;70.35
61474;BME280;53694;49.784;30.150;2023-04-04T04:00:06;99651.81;;;5.88;69.62
61474;BME280;53694;49.784;30.150;2023-04-04T04:01:08;99657.39;;;6.00;69.27
61474;BME280;53694;49.784;30.150;2023-04-04T04:02:09;99654.75;;;6.13;68.54
61474;BME280;53694;49.784;30.150;2023-04-04T04:03:11;99646.23;;;6.14;68.26
61474;BME280;53694;49.784;30.150;2023-04-04T04:04:12;99654.66;;;6.00;68.22
61474;BME280;53694;49.784;30.150;2023-04-04T04:05:14;99651.37;;;5.77;68.98
61474;BME280;53694;49.784;30.150;2023-04-04T04:06:16;99649.91;;;5.50;69.78
61474;BME280;53694;49.784;30.150;2023-04-04T04:07:17;99653.20;;;5.18;70.86
61474;BME280;53694;49.784;30.150;2023-04-04T04:08:19;99646.72;;;4.84;71.85
61474;BME280;53694;49.784;30.150;2023-04-04T04:09:20;99653.48;;;4.52;73.08
61474;BME280;53694;49.784;30.150;2023-04-04T04:10:22;99646.91;;;4.27;74.12
61474;BME280;53694;49.784;30.150;2023-04-04T04:11:23;99645.30;;;4.17;74.88
61474;BME280;53694;49.784;30.150;2023-04-04T04:12:25;99644.19;;;4.18;75.15
61474;BME280;53694;49.784;30.150;2023-04-04T04:13:26;99637.00;;;4.31;75.13
61474;BME280;53694;49.784;30.150;2023-04-04T04:14:28;99644.83;;;4.50;75.01
61474;BME280;53694;49.784;30.150;2023-04-04T04:15:29;99647.69;;;4.71;74.38
61474;BME280;53694;49.784;30.150;2023-04-04T04:16:31;99648.48;;;4.97;73.94
61474;BME280;53694;49.784;30.150;2023-04-04T04:17:33;99641.52;;;5.17;72.59
61474;BME280;53694;49.784;30.150;2023-04-04T04:18:34;99647.73;;;5.35;72.08
61474;BME280;53694;49.784;30.150;2023-04-04T04:19:36;99651.34;;;5.57;71.76
61474;BME280;53694;49.784;30.150;2023-04-04T04:20:37;99645.13;;;5.77;70.82
61474;BME280;53694;49.784;30.150;2023-04-04T04:21:39;99659.83;;;5.93;69.98
61474;BME280;53694;49.784;30.150;2023-04-04T04:22:45;99655.59;;;6.05;68.80
61474;BME280;53694;49.784;30.150;2023-04-04T04:23:47;99652.22;;;6.08;68.19
61474;BME280;53694;49.784;30.150;2023-04-04T04:24:48;99654.32;;;6.02;68.18
61474;BME280;53694;49.784;30.150;2023-04-04T04:25:49;99647.69;;;5.82;68.71
61474;BME280;53694;49.784;30.150;2023-04-04T04:26:51;99643.81;;;5.54;69.47
61474;BME280;53694;49.784;30.150;2023-04-04T04:27:56;99642.50;;;5.13;70.57
61474;BME280;53694;49.784;30.150;2023-04-04T04:28:57;99640.98;;;4.77;71.95
61474;BME280;53694;49.784;30.150;2023-04-04T04:29:59;99642.11;;;4.41;73.52
61474;BME280;53694;49.784;30.150;2023-04-04T04:31:08;99635.23;;;4.18;74.79
61474;BME280;53694;49.784;30.150;2023-04-04T04:32:07;99644.64;;;4.12;75.57
61474;BME280;53694;49.784;30.150;2023-04-04T04:33:09;99645.61;;;4.16;76.00
61474;BME280;53694;49.784;30.150;2023-04-04T04:34:10;99643.56;;;4.30;76.00
61474;BME280;53694;49.784;30.150;2023-04-04T04:35:12;99636.53;;;4.46;75.41
61474;BME280;53694;49.784;30.150;2023-04-04T04:36:14;99635.55;;;4.68;75.08
61474;BME280;53694;49.784;30.150;2023-04-04T04:37:15;99647.03;;;4.91;74.30
61474;BME280;53694;49.784;30.150;2023-04-04T04:38:17;99639.78;;;5.13;73.79
61474;BME280;53694;49.784;30.150;2023-04-04T04:39:18;99643.39;;;5.34;72.80
61474;BME280;53694;49.784;30.150;2023-04-04T04:40:20;99647.67;;;5.53;71.36
61474;BME280;53694;49.784;30.150;2023-04-04T04:41:21;99646.64;;;5.66;71.03
61474;BME280;53694;49.784;30.150;2023-04-04T04:42:23;99649.92;;;5.80;70.45
61474;BME280;53694;49.784;30.150;2023-04-04T04:43:24;99651.00;;;5.96;70.33
61474;BME280;53694;49.784;30.150;2023-04-04T04:44:26;99652.02;;;6.13;69.78
61474;BME280;53694;49.784;30.150;2023-04-04T04:45:27;99655.77;;;6.29;69.02
61474;BME280;53694;49.784;30.150;2023-04-04T04:46:29;99645.45;;;6.35;68.13
61474;BME280;53694;49.784;30.150;2023-04-04T04:47:30;99649.91;;;6.39;67.97
61474;BME280;53694;49.784;30.150;2023-04-04T04:48:32;99643.92;;;6.25;67.71
61474;BME280;53694;49.784;30.150;2023-04-04T04:49:33;99644.41;;;5.97;68.08
61474;BME280;53694;49.784;30.150;2023-04-04T04:50:35;99655.47;;;5.63;69.42
61474;BME280;53694;49.784;30.150;2023-04-04T04:51:36;99654.80;;;5.28;70.50
61474;BME280;53694;49.784;30.150;2023-04-04T04:52:38;99656.79;;;4.92;71.46
61474;BME280;53694;49.784;30.150;2023-04-04T04:53:40;99670.42;;;4.58;72.76
61474;BME280;53694;49.784;30.150;2023-04-04T04:54:41;99679.07;;;4.34;73.81
61474;BME280;53694;49.784;30.150;2023-04-04T04:55:44;99682.25;;;4.27;74.66
61474;BME280;53694;49.784;30.150;2023-04-04T04:56:45;99678.91;;;4.30;74.81
61474;BME280;53694;49.784;30.150;2023-04-04T04:57:47;99671.22;;;4.41;74.81
61474;BME280;53694;49.784;30.150;2023-04-04T04:58:48;99674.11;;;4.62;74.64
61474;BME280;53694;49.784;30.150;2023-04-04T04:59:50;99670.58;;;4.79;73.92
61474;BME280;53694;49.784;30.150;2023-04-04T05:00:55;99679.38;;;5.01;73.51
61474;BME280;53694;49.784;30.150;2023-04-04T05:01:56;99666.98;;;5.21;72.67
61474;BME280;53694;49.784;30.150;2023-04-04T05:02:58;99670.78;;;5.38;71.72
61474;BME280;53694;49.784;30.150;2023-04-04T05:03:59;99670.41;;;5.57;71.37
61474;BME280;53694;49.784;30.150;2023-04-04T05:05:01;99665.87;;;5.69;70.94
61474;BME280;53694;49.784;30.150;2023-04-04T05:06:03;99668.02;;;5.85;70.36
61474;BME280;53694;49.784;30.150;2023-04-04T05:07:05;99681.97;;;5.92;69.16
61474;BME280;53694;49.784;30.150;2023-04-04T05:08:06;99680.98;;;5.96;69.35
61474;BME280;53694;49.784;30.150;2023-04-04T05:09:08;99680.73;;;6.10;69.27
61474;BME280;53694;49.784;30.150;2023-04-04T05:10:10;99689.86;;;6.14;68.82
61474;BME280;53694;49.784;30.150;2023-04-04T05:11:11;99686.05;;;6.07;68.84
61474;BME280;53694;49.784;30.150;2023-04-04T05:12:13;99690.16;;;5.83;69.10
61474;BME280;53694;49.784;30.150;2023-04-04T05:13:14;99698.94;;;5.50;69.53
61474;BME280;53694;49.784;30.150;2023-04-04T05:14:16;99693.09;;;5.14;71.01
61474;BME280;53694;49.784;30.150;2023-04-04T05:15:17;99694.27;;;4.78;71.97
61474;BME280;53694;49.784;30.150;2023-04-04T05:16:19;99701.13;;;4.41;73.27
61474;BME280;53694;49.784;30.150;2023-04-04T05:17:20;99704.61;;;4.15;74.54
61474;BME280;53694;49.784;30.150;2023-04-04T05:18:22;99703.79;;;4.06;75.34
61474;BME280;53694;49.784;30.150;2023-04-04T05:19:23;99705.56;;;4.11;75.48
61474;BME280;53694;49.784;30.150;2023-04-04T05:20:25;99703.20;;;4.26;75.70
61474;BME280;53694;49.784;30.150;2023-04-04T05:21:27;99704.19;;;4.48;75.11
61474;BME280;53694;49.784;30.150;2023-04-04T05:22:28;99700.05;;;4.68;74.50
61474;BME280;53694;49.784;30.150;2023-04-04T05:23:30;99698.73;;;4.91;73.94
61474;BME280;53694;49.784;30.150;2023-04-04T05:24:31;99706.41;;;5.15;73.10
61474;BME280;53694;49.784;30.150;2023-04-04T05:25:33;99708.11;;;5.37;71.99
61474;BME280;53694;49.784;30.150;2023-04-04T05:26:35;99714.30;;;5.55;71.22
61474;BME280;53694;49.784;30.150;2023-04-04T05:27:37;99715.22;;;5.68;70.34
61474;BME280;53694;49.784;30.150;2023-04-04T05:28:38;99709.88;;;5.80;70.18
61474;BME280;53694;49.784;30.150;2023-04-04T05:29:39;99713.84;;;6.00;70.08
61474;BME280;53694;49.784;30.150;2023-04-04T05:30:41;99723.17;;;6.20;69.39